sensor_id;sensor_type;location;lat;lon;timestamp;P1;durP1;ratioP1;P2;durP2;ratioP2
4957;SDS011;2494;51.872;9.688;2022-08-19T00:02:02;7.70;;;7.00;;
4957;SDS011;2494;51.872;9.688;2022-08-19T00:04:32;11.30;;;8.23;;
4957;SDS011;2494;51.872;9.688;2022-08-19T00:07:08;8.73;;;8.00;;
4957;SDS011;2494;51.872;9.688;2022-08-19T00:09:42;10.10;;;7.23;;
4957;SDS011;2494;51.872;9.688;2022-08-19T00:12:29;7.40;;;6.70;;
4957;SDS011;2494;51.872;9.688;2022-08-19T00:14:55;9.93;;;7.07;;
4957;SDS011;2494;51.872;9.688;2022-08-19T00:17:23;6.43;;;5.93;;
4957;SDS011;2494;51.872;9.688;2022-08-19T00:19:52;6.37;;;5.23;;
4957;SDS011;2494;51.872;9.688;2022-08-19T00:22:24;7.23;;;6.63;;
4957;SDS011;2494;51.872;9.688;2022-08-19T00:25:10;7.10;;;6.50;;
4957;SDS011;2494;51.872;9.688;2022-08-19T00:27:39;8.40;;;7.70;;
4957;SDS011;2494;51.872;9.688;2022-08-19T00:30:21;7.70;;;7.10;;
4957;SDS011;2494;51.872;9.688;2022-08-19T00:33:14;8.60;;;7.87;;
4957;SDS011;2494;51.872;9.688;2022-08-19T00:35:46;8.50;;;7.73;;
4957;SDS011;2494;51.872;9.688;2022-08-19T00:38:16;10.63;;;8.50;;
4957;SDS011;2494;51.872;9.688;2022-08-19T00:41:03;10.07;;;7.60;;
4957;SDS011;2494;51.872;9.688;2022-08-19T00:43:36;8.83;;;8.00;;
4957;SDS011;2494;51.872;9.688;2022-08-19T00:46:20;8.93;;;8.03;;
4957;SDS011;2494;51.872;9.688;2022-08-19T00:48:56;8.13;;;7.53;;
4957;SDS011;2494;51.872;9.688;2022-08-19T00:51:41;8.83;;;7.90;;
4957;SDS011;2494;51.872;9.688;2022-08-19T00:54:11;8.43;;;7.73;;
4957;SDS011;2494;51.872;9.688;2022-08-19T00:56:46;8.60;;;7.80;;
4957;SDS011;2494;51.872;9.688;2022-08-19T00:59:12;9.20;;;8.47;;
4957;SDS011;2494;51.872;9.688;2022-08-19T01:01:48;8.33;;;7.30;;
4957;SDS011;2494;51.872;9.688;2022-08-19T01:04:18;8.00;;;7.30;;
4957;SDS011;2494;51.872;9.688;2022-08-19T01:06:44;13.40;;;8.10;;
4957;SDS011;2494;51.872;9.688;2022-08-19T01:09:21;7.90;;;7.27;;
4957;SDS011;2494;51.872;9.688;2022-08-19T01:11:59;8.97;;;8.20;;
4957;SDS011;2494;51.872;9.688;2022-08-19T01:14:26;8.57;;;7.80;;
4957;SDS011;2494;51.872;9.688;2022-08-19T01:16:52;9.27;;;8.23;;
4957;SDS011;2494;51.872;9.688;2022-08-19T01:19:31;10.77;;;9.73;;
4957;SDS011;2494;51.872;9.688;2022-08-19T01:22:08;9.90;;;8.80;;
4957;SDS011;2494;51.872;9.688;2022-08-19T01:24:41;10.23;;;9.23;;
4957;SDS011;2494;51.872;9.688;2022-08-19T01:27:10;11.03;;;9.70;;
4957;SDS011;2494;51.872;9.688;2022-08-19T01:29:47;11.27;;;8.83;;
4957;SDS011;2494;51.872;9.688;2022-08-19T01:32:34;9.60;;;8.60;;
4957;SDS011;2494;51.872;9.688;2022-08-19T01:35:16;8.90;;;8.03;;
4957;SDS011;2494;51.872;9.688;2022-08-19T01:37:47;8.40;;;7.63;;
4957;SDS011;2494;51.872;9.688;2022-08-19T01:40:15;8.77;;;7.97;;
4957;SDS011;2494;51.872;9.688;2022-08-19T01:42:41;9.57;;;8.40;;
4957;SDS011;2494;51.872;9.688;2022-08-19T01:45:08;10.00;;;8.67;;
4957;SDS011;2494;51.872;9.688;2022-08-19T01:47:34;8.20;;;7.60;;
4957;SDS011;2494;51.872;9.688;2022-08-19T01:50:01;8.70;;;7.83;;
4957;SDS011;2494;51.872;9.688;2022-08-19T01:52:27;11.17;;;10.03;;
4957;SDS011;2494;51.872;9.688;2022-08-19T01:54:54;8.00;;;7.30;;
4957;SDS011;2494;51.872;9.688;2022-08-19T01:57:21;8.17;;;7.40;;
4957;SDS011;2494;51.872;9.688;2022-08-19T01:59:48;8.37;;;7.63;;
4957;SDS011;2494;51.872;9.688;2022-08-19T02:02:15;8.80;;;8.17;;
4957;SDS011;2494;51.872;9.688;2022-08-19T02:04:43;9.00;;;8.30;;
4957;SDS011;2494;51.872;9.688;2022-08-19T02:07:13;9.77;;;8.30;;
4957;SDS011;2494;51.872;9.688;2022-08-19T02:09:47;9.90;;;9.00;;
4957;SDS011;2494;51.872;9.688;2022-08-19T02:12:14;9.40;;;8.13;;
4957;SDS011;2494;51.872;9.688;2022-08-19T02:14:48;9.93;;;9.03;;
4957;SDS011;2494;51.872;9.688;2022-08-19T02:17:14;9.57;;;8.40;;
4957;SDS011;2494;51.872;9.688;2022-08-19T02:19:41;10.00;;;8.97;;
4957;SDS011;2494;51.872;9.688;2022-08-19T02:22:12;10.30;;;9.27;;
4957;SDS011;2494;51.872;9.688;2022-08-19T02:24:38;11.07;;;10.20;;
4957;SDS011;2494;51.872;9.688;2022-08-19T02:27:08;11.27;;;8.20;;
4957;SDS011;2494;51.872;9.688;2022-08-19T02:29:38;9.97;;;8.27;;
4957;SDS011;2494;51.872;9.688;2022-08-19T02:32:06;8.63;;;7.90;;
4957;SDS011;2494;51.872;9.688;2022-08-19T02:34:32;8.40;;;7.70;;
4957;SDS011;2494;51.872;9.688;2022-08-19T02:37:05;8.57;;;7.47;;
4957;SDS011;2494;51.872;9.688;2022-08-19T02:39:51;10.83;;;7.70;;
4957;SDS011;2494;51.872;9.688;2022-08-19T02:42:16;8.13;;;7.53;;
4957;SDS011;2494;51.872;9.688;2022-08-19T02:44:46;9.30;;;6.83;;
4957;SDS011;2494;51.872;9.688;2022-08-19T02:47:13;7.10;;;6.60;;
4957;SDS011;2494;51.872;9.688;2022-08-19T02:49:43;6.23;;;5.67;;
4957;SDS011;2494;51.872;9.688;2022-08-19T02:52:16;6.03;;;5.57;;
4957;SDS011;2494;51.872;9.688;2022-08-19T02:54:42;8.00;;;6.50;;
4957;SDS011;2494;51.872;9.688;2022-08-19T02:57:11;6.43;;;5.83;;
4957;SDS011;2494;51.872;9.688;2022-08-19T02:59:37;6.67;;;5.93;;
4957;SDS011;2494;51.872;9.688;2022-08-19T03:02:08;6.80;;;6.20;;
4957;SDS011;2494;51.872;9.688;2022-08-19T03:04:37;6.47;;;5.90;;
4957;SDS011;2494;51.872;9.688;2022-08-19T03:07:06;8.37;;;7.63;;
4957;SDS011;2494;51.872;9.688;2022-08-19T03:09:32;5.90;;;5.40;;
4957;SDS011;2494;51.872;9.688;2022-08-19T03:11:58;6.10;;;5.60;;
4957;SDS011;2494;51.872;9.688;2022-08-19T03:14:24;5.63;;;5.23;;
4957;SDS011;2494;51.872;9.688;2022-08-19T03:16:59;6.20;;;5.60;;
4957;SDS011;2494;51.872;9.688;2022-08-19T03:19:28;6.23;;;5.73;;
4957;SDS011;2494;51.872;9.688;2022-08-19T03:22:00;6.57;;;6.00;;
4957;SDS011;2494;51.872;9.688;2022-08-19T03:24:27;5.00;;;4.70;;
4957;SDS011;2494;51.872;9.688;2022-08-19T03:26:56;5.93;;;5.07;;
4957;SDS011;2494;51.872;9.688;2022-08-19T03:29:24;6.10;;;5.60;;
4957;SDS011;2494;51.872;9.688;2022-08-19T03:31:58;6.50;;;6.00;;
4957;SDS011;2494;51.872;9.688;2022-08-19T03:34:26;5.63;;;4.90;;
4957;SDS011;2494;51.872;9.688;2022-08-19T03:36:56;5.90;;;5.40;;
4957;SDS011;2494;51.872;9.688;2022-08-19T03:39:24;5.90;;;5.40;;
4957;SDS011;2494;51.872;9.688;2022-08-19T03:41:53;6.20;;;5.60;;
4957;SDS011;2494;51.872;9.688;2022-08-19T03:44:21;6.97;;;5.07;;
4957;SDS011;2494;51.872;9.688;2022-08-19T03:46:51;5.33;;;5.00;;
4957;SDS011;2494;51.872;9.688;2022-08-19T03:49:21;6.93;;;5.77;;
4957;SDS011;2494;51.872;9.688;2022-08-19T03:51:48;6.47;;;5.97;;
4957;SDS011;2494;51.872;9.688;2022-08-19T03:54:16;6.60;;;6.17;;
4957;SDS011;2494;51.872;9.688;2022-08-19T03:56:44;7.80;;;6.10;;
4957;SDS011;2494;51.872;9.688;2022-08-19T03:59:12;5.90;;;5.50;;
4957;SDS011;2494;51.872;9.688;2022-08-19T04:01:42;6.00;;;5.47;;
4957;SDS011;2494;51.872;9.688;2022-08-19T04:04:12;5.83;;;5.43;;
4957;SDS011;2494;51.872;9.688;2022-08-19T04:06:41;7.33;;;5.40;;
4957;SDS011;2494;51.872;9.688;2022-08-19T04:09:13;5.17;;;4.77;;
4957;SDS011;2494;51.872;9.688;2022-08-19T04:11:40;6.23;;;5.53;;
4957;SDS011;2494;51.872;9.688;2022-08-19T04:14:15;5.97;;;5.50;;
4957;SDS011;2494;51.872;9.688;2022-08-19T04:16:44;5.77;;;5.27;;
4957;SDS011;2494;51.872;9.688;2022-08-19T04:19:12;5.50;;;5.10;;
4957;SDS011;2494;51.872;9.688;2022-08-19T04:21:38;5.67;;;5.27;;
4957;SDS011;2494;51.872;9.688;2022-08-19T04:24:13;7.17;;;5.80;;
4957;SDS011;2494;51.872;9.688;2022-08-19T04:26:39;5.30;;;4.80;;
4957;SDS011;2494;51.872;9.688;2022-08-19T04:29:07;5.50;;;5.10;;
4957;SDS011;2494;51.872;9.688;2022-08-19T04:31:35;5.50;;;5.20;;
4957;SDS011;2494;51.872;9.688;2022-08-19T04:34:03;6.77;;;5.30;;
4957;SDS011;2494;51.872;9.688;2022-08-19T04:36:31;5.67;;;5.17;;
4957;SDS011;2494;51.872;9.688;2022-08-19T04:38:59;5.13;;;4.83;;
4957;SDS011;2494;51.872;9.688;2022-08-19T04:41:28;6.20;;;5.60;;
4957;SDS011;2494;51.872;9.688;2022-08-19T04:44:13;6.50;;;5.90;;
4957;SDS011;2494;51.872;9.688;2022-08-19T04:46:44;6.70;;;6.20;;
4957;SDS011;2494;51.872;9.688;2022-08-19T04:49:16;6.77;;;6.20;;
4957;SDS011;2494;51.872;9.688;2022-08-19T04:51:43;6.87;;;6.27;;
4957;SDS011;2494;51.872;9.688;2022-08-19T04:54:13;6.50;;;6.00;;
4957;SDS011;2494;51.872;9.688;2022-08-19T04:56:39;6.80;;;5.63;;
4957;SDS011;2494;51.872;9.688;2022-08-19T04:59:06;5.17;;;4.87;;
4957;SDS011;2494;51.872;9.688;2022-08-19T05:01:34;5.60;;;5.03;;
4957;SDS011;2494;51.872;9.688;2022-08-19T05:04:05;6.77;;;6.17;;
4957;SDS011;2494;51.872;9.688;2022-08-19T05:06:34;5.73;;;5.07;;
4957;SDS011;2494;51.872;9.688;2022-08-19T05:09:02;5.27;;;4.77;;
4957;SDS011;2494;51.872;9.688;2022-08-19T05:11:30;5.63;;;5.23;;
4957;SDS011;2494;51.872;9.688;2022-08-19T05:14:00;5.70;;;5.20;;
4957;SDS011;2494;51.872;9.688;2022-08-19T05:16:26;4.60;;;4.20;;
4957;SDS011;2494;51.872;9.688;2022-08-19T05:18:53;5.80;;;4.80;;
4957;SDS011;2494;51.872;9.688;2022-08-19T05:21:38;6.03;;;4.70;;
4957;SDS011;2494;51.872;9.688;2022-08-19T05:24:22;4.87;;;4.47;;
4957;SDS011;2494;51.872;9.688;2022-08-19T05:26:52;4.80;;;4.40;;
4957;SDS011;2494;51.872;9.688;2022-08-19T05:29:21;5.10;;;4.90;;
4957;SDS011;2494;51.872;9.688;2022-08-19T05:31:48;4.50;;;4.20;;
4957;SDS011;2494;51.872;9.688;2022-08-19T05:34:15;4.93;;;4.53;;
4957;SDS011;2494;51.872;9.688;2022-08-19T05:36:43;5.33;;;4.83;;
4957;SDS011;2494;51.872;9.688;2022-08-19T05:39:11;4.63;;;4.23;;
4957;SDS011;2494;51.872;9.688;2022-08-19T05:41:40;5.23;;;4.80;;
4957;SDS011;2494;51.872;9.688;2022-08-19T05:44:07;5.13;;;4.73;;
4957;SDS011;2494;51.872;9.688;2022-08-19T05:46:34;5.00;;;4.60;;
4957;SDS011;2494;51.872;9.688;2022-08-19T05:49:02;7.30;;;4.13;;
4957;SDS011;2494;51.872;9.688;2022-08-19T05:51:29;4.37;;;3.97;;
4957;SDS011;2494;51.872;9.688;2022-08-19T05:53:56;5.47;;;5.07;;
4957;SDS011;2494;51.872;9.688;2022-08-19T05:56:23;4.80;;;4.43;;
4957;SDS011;2494;51.872;9.688;2022-08-19T05:58:49;4.93;;;4.13;;
4957;SDS011;2494;51.872;9.688;2022-08-19T06:01:18;4.80;;;4.50;;
4957;SDS011;2494;51.872;9.688;2022-08-19T06:03:44;5.03;;;4.63;;
4957;SDS011;2494;51.872;9.688;2022-08-19T06:06:13;5.43;;;4.73;;
4957;SDS011;2494;51.872;9.688;2022-08-19T06:08:40;5.73;;;3.97;;
4957;SDS011;2494;51.872;9.688;2022-08-19T06:11:14;6.00;;;4.73;;
4957;SDS011;2494;51.872;9.688;2022-08-19T06:13:40;5.00;;;4.30;;
4957;SDS011;2494;51.872;9.688;2022-08-19T06:16:06;5.27;;;4.50;;
4957;SDS011;2494;51.872;9.688;2022-08-19T06:18:33;4.57;;;4.17;;
4957;SDS011;2494;51.872;9.688;2022-08-19T06:20:59;4.13;;;3.50;;
4957;SDS011;2494;51.872;9.688;2022-08-19T06:23:28;3.40;;;3.20;;
4957;SDS011;2494;51.872;9.688;2022-08-19T06:25:55;4.10;;;3.80;;
4957;SDS011;2494;51.872;9.688;2022-08-19T06:28:22;3.10;;;2.90;;
4957;SDS011;2494;51.872;9.688;2022-08-19T06:30:49;2.83;;;2.53;;
4957;SDS011;2494;51.872;9.688;2022-08-19T06:33:16;3.43;;;3.13;;
4957;SDS011;2494;51.872;9.688;2022-08-19T06:35:42;3.40;;;2.60;;
4957;SDS011;2494;51.872;9.688;2022-08-19T06:38:09;3.47;;;3.23;;
4957;SDS011;2494;51.872;9.688;2022-08-19T06:40:35;2.63;;;2.20;;
4957;SDS011;2494;51.872;9.688;2022-08-19T06:43:02;2.97;;;2.60;;
4957;SDS011;2494;51.872;9.688;2022-08-19T06:45:30;3.70;;;3.40;;
4957;SDS011;2494;51.872;9.688;2022-08-19T06:47:56;3.57;;;3.30;;
4957;SDS011;2494;51.872;9.688;2022-08-19T06:50:23;3.43;;;3.10;;
4957;SDS011;2494;51.872;9.688;2022-08-19T06:52:49;3.73;;;3.53;;
4957;SDS011;2494;51.872;9.688;2022-08-19T06:55:16;4.00;;;3.70;;
4957;SDS011;2494;51.872;9.688;2022-08-19T06:57:42;4.40;;;4.10;;
4957;SDS011;2494;51.872;9.688;2022-08-19T07:00:11;4.97;;;4.00;;
4957;SDS011;2494;51.872;9.688;2022-08-19T07:02:39;4.40;;;4.00;;
4957;SDS011;2494;51.872;9.688;2022-08-19T07:05:06;6.00;;;5.50;;
4957;SDS011;2494;51.872;9.688;2022-08-19T07:07:33;5.67;;;4.97;;
4957;SDS011;2494;51.872;9.688;2022-08-19T07:09:59;5.63;;;5.23;;
4957;SDS011;2494;51.872;9.688;2022-08-19T07:12:27;5.33;;;4.97;;
4957;SDS011;2494;51.872;9.688;2022-08-19T07:14:53;6.47;;;6.10;;
4957;SDS011;2494;51.872;9.688;2022-08-19T07:17:20;6.07;;;5.63;;
4957;SDS011;2494;51.872;9.688;2022-08-19T07:19:47;6.67;;;6.17;;
4957;SDS011;2494;51.872;9.688;2022-08-19T07:22:15;6.53;;;5.93;;
4957;SDS011;2494;51.872;9.688;2022-08-19T07:24:43;6.13;;;5.73;;
4957;SDS011;2494;51.872;9.688;2022-08-19T07:27:09;5.80;;;5.40;;
4957;SDS011;2494;51.872;9.688;2022-08-19T07:29:36;6.37;;;5.97;;
4957;SDS011;2494;51.872;9.688;2022-08-19T07:32:03;6.47;;;5.87;;
4957;SDS011;2494;51.872;9.688;2022-08-19T07:34:30;6.23;;;5.60;;
4957;SDS011;2494;51.872;9.688;2022-08-19T07:37:00;5.80;;;5.47;;
4957;SDS011;2494;51.872;9.688;2022-08-19T07:39:28;4.57;;;4.17;;
4957;SDS011;2494;51.872;9.688;2022-08-19T07:41:55;5.63;;;5.23;;
4957;SDS011;2494;51.872;9.688;2022-08-19T07:44:22;5.47;;;4.97;;
4957;SDS011;2494;51.872;9.688;2022-08-19T07:46:52;5.77;;;5.37;;
4957;SDS011;2494;51.872;9.688;2022-08-19T07:49:19;5.97;;;5.47;;
4957;SDS011;2494;51.872;9.688;2022-08-19T07:51:46;5.60;;;5.30;;
4957;SDS011;2494;51.872;9.688;2022-08-19T07:54:14;5.80;;;5.30;;
4957;SDS011;2494;51.872;9.688;2022-08-19T07:56:40;5.90;;;5.33;;
4957;SDS011;2494;51.872;9.688;2022-08-19T07:59:07;7.07;;;4.93;;
4957;SDS011;2494;51.872;9.688;2022-08-19T08:01:34;4.70;;;4.40;;
4957;SDS011;2494;51.872;9.688;2022-08-19T08:04:00;4.10;;;3.60;;
4957;SDS011;2494;51.872;9.688;2022-08-19T08:06:44;4.10;;;3.10;;
4957;SDS011;2494;51.872;9.688;2022-08-19T08:09:31;5.93;;;3.03;;
4957;SDS011;2494;51.872;9.688;2022-08-19T08:11:59;3.53;;;2.83;;
4957;SDS011;2494;51.872;9.688;2022-08-19T08:14:27;4.17;;;2.93;;
4957;SDS011;2494;51.872;9.688;2022-08-19T08:16:53;5.63;;;3.33;;
4957;SDS011;2494;51.872;9.688;2022-08-19T08:19:20;5.73;;;3.47;;
4957;SDS011;2494;51.872;9.688;2022-08-19T08:21:47;3.70;;;2.83;;
4957;SDS011;2494;51.872;9.688;2022-08-19T08:24:14;2.87;;;2.67;;
4957;SDS011;2494;51.872;9.688;2022-08-19T08:26:42;4.70;;;2.37;;
4957;SDS011;2494;51.872;9.688;2022-08-19T08:29:09;3.03;;;2.73;;
4957;SDS011;2494;51.872;9.688;2022-08-19T08:31:36;2.80;;;2.60;;
4957;SDS011;2494;51.872;9.688;2022-08-19T08:34:02;2.80;;;2.60;;
4957;SDS011;2494;51.872;9.688;2022-08-19T08:36:29;3.00;;;2.80;;
4957;SDS011;2494;51.872;9.688;2022-08-19T08:38:58;3.33;;;3.13;;
4957;SDS011;2494;51.872;9.688;2022-08-19T08:41:26;3.30;;;2.93;;
4957;SDS011;2494;51.872;9.688;2022-08-19T08:43:55;3.30;;;3.10;;
4957;SDS011;2494;51.872;9.688;2022-08-19T08:46:23;3.00;;;2.43;;
4957;SDS011;2494;51.872;9.688;2022-08-19T08:48:51;4.00;;;3.70;;
4957;SDS011;2494;51.872;9.688;2022-08-19T08:51:20;4.63;;;3.70;;
4957;SDS011;2494;51.872;9.688;2022-08-19T08:53:48;5.60;;;4.10;;
4957;SDS011;2494;51.872;9.688;2022-08-19T08:56:15;4.67;;;4.37;;
4957;SDS011;2494;51.872;9.688;2022-08-19T08:58:46;3.50;;;2.67;;
4957;SDS011;2494;51.872;9.688;2022-08-19T09:01:15;2.80;;;2.60;;
4957;SDS011;2494;51.872;9.688;2022-08-19T09:03:42;2.90;;;2.70;;
4957;SDS011;2494;51.872;9.688;2022-08-19T09:06:12;2.93;;;2.50;;
4957;SDS011;2494;51.872;9.688;2022-08-19T09:08:43;2.83;;;2.63;;
4957;SDS011;2494;51.872;9.688;2022-08-19T09:11:12;2.50;;;1.90;;
4957;SDS011;2494;51.872;9.688;2022-08-19T09:13:42;3.97;;;2.27;;
4957;SDS011;2494;51.872;9.688;2022-08-19T09:16:12;2.80;;;1.93;;
4957;SDS011;2494;51.872;9.688;2022-08-19T09:18:42;2.10;;;1.70;;
4957;SDS011;2494;51.872;9.688;2022-08-19T09:21:10;4.20;;;2.10;;
4957;SDS011;2494;51.872;9.688;2022-08-19T09:23:36;1.83;;;1.70;;
4957;SDS011;2494;51.872;9.688;2022-08-19T09:26:06;2.50;;;2.30;;
4957;SDS011;2494;51.872;9.688;2022-08-19T09:28:32;1.83;;;1.50;;
4957;SDS011;2494;51.872;9.688;2022-08-19T09:30:59;1.90;;;1.80;;
4957;SDS011;2494;51.872;9.688;2022-08-19T09:33:25;3.50;;;1.97;;
4957;SDS011;2494;51.872;9.688;2022-08-19T09:36:02;1.80;;;1.70;;
4957;SDS011;2494;51.872;9.688;2022-08-19T09:38:29;1.83;;;1.60;;
4957;SDS011;2494;51.872;9.688;2022-08-19T09:40:55;1.60;;;1.50;;
4957;SDS011;2494;51.872;9.688;2022-08-19T09:43:21;1.60;;;1.50;;
4957;SDS011;2494;51.872;9.688;2022-08-19T09:45:48;1.80;;;1.70;;
4957;SDS011;2494;51.872;9.688;2022-08-19T09:48:14;3.63;;;1.73;;
4957;SDS011;2494;51.872;9.688;2022-08-19T09:50:40;1.67;;;1.57;;
4957;SDS011;2494;51.872;9.688;2022-08-19T09:53:08;3.43;;;1.30;;
4957;SDS011;2494;51.872;9.688;2022-08-19T09:55:34;3.90;;;1.63;;
4957;SDS011;2494;51.872;9.688;2022-08-19T09:58:01;2.50;;;2.07;;
4957;SDS011;2494;51.872;9.688;2022-08-19T10:00:27;1.50;;;1.33;;
4957;SDS011;2494;51.872;9.688;2022-08-19T10:02:53;1.73;;;1.63;;
4957;SDS011;2494;51.872;9.688;2022-08-19T10:05:20;1.77;;;1.10;;
4957;SDS011;2494;51.872;9.688;2022-08-19T10:08:03;2.77;;;1.60;;
4957;SDS011;2494;51.872;9.688;2022-08-19T10:10:31;1.87;;;1.50;;
4957;SDS011;2494;51.872;9.688;2022-08-19T10:13:00;1.67;;;1.57;;
4957;SDS011;2494;51.872;9.688;2022-08-19T10:15:26;1.60;;;1.50;;
4957;SDS011;2494;51.872;9.688;2022-08-19T10:17:53;1.50;;;1.40;;
4957;SDS011;2494;51.872;9.688;2022-08-19T10:20:19;2.13;;;1.40;;
4957;SDS011;2494;51.872;9.688;2022-08-19T10:22:46;1.70;;;1.60;;
4957;SDS011;2494;51.872;9.688;2022-08-19T10:25:13;2.30;;;2.10;;
4957;SDS011;2494;51.872;9.688;2022-08-19T10:27:42;3.60;;;1.90;;
4957;SDS011;2494;51.872;9.688;2022-08-19T10:30:09;2.77;;;1.60;;
4957;SDS011;2494;51.872;9.688;2022-08-19T10:32:36;1.57;;;1.40;;
4957;SDS011;2494;51.872;9.688;2022-08-19T10:35:02;4.53;;;1.40;;
4957;SDS011;2494;51.872;9.688;2022-08-19T10:37:32;2.27;;;2.07;;
4957;SDS011;2494;51.872;9.688;2022-08-19T10:39:59;1.97;;;1.60;;
4957;SDS011;2494;51.872;9.688;2022-08-19T10:42:26;1.70;;;1.60;;
4957;SDS011;2494;51.872;9.688;2022-08-19T10:44:54;1.57;;;1.47;;
4957;SDS011;2494;51.872;9.688;2022-08-19T10:47:23;1.43;;;1.33;;
4957;SDS011;2494;51.872;9.688;2022-08-19T10:49:49;2.40;;;1.60;;
4957;SDS011;2494;51.872;9.688;2022-08-19T10:52:33;1.57;;;1.10;;
4957;SDS011;2494;51.872;9.688;2022-08-19T10:54:59;3.07;;;1.10;;
4957;SDS011;2494;51.872;9.688;2022-08-19T10:57:44;1.40;;;1.30;;
4957;SDS011;2494;51.872;9.688;2022-08-19T11:00:12;2.37;;;1.20;;
4957;SDS011;2494;51.872;9.688;2022-08-19T11:02:38;1.77;;;1.20;;
4957;SDS011;2494;51.872;9.688;2022-08-19T11:05:06;1.27;;;1.10;;
4957;SDS011;2494;51.872;9.688;2022-08-19T11:07:35;1.50;;;1.40;;
4957;SDS011;2494;51.872;9.688;2022-08-19T11:10:03;1.40;;;1.30;;
4957;SDS011;2494;51.872;9.688;2022-08-19T11:12:29;1.40;;;1.27;;
4957;SDS011;2494;51.872;9.688;2022-08-19T11:14:55;2.20;;;1.40;;
4957;SDS011;2494;51.872;9.688;2022-08-19T11:17:23;1.40;;;1.30;;
4957;SDS011;2494;51.872;9.688;2022-08-19T11:19:49;1.63;;;1.00;;
4957;SDS011;2494;51.872;9.688;2022-08-19T11:22:16;1.27;;;1.17;;
4957;SDS011;2494;51.872;9.688;2022-08-19T11:24:42;1.37;;;1.27;;
4957;SDS011;2494;51.872;9.688;2022-08-19T11:27:09;1.90;;;1.80;;
4957;SDS011;2494;51.872;9.688;2022-08-19T11:29:35;1.23;;;1.00;;
4957;SDS011;2494;51.872;9.688;2022-08-19T11:32:04;1.30;;;1.20;;
4957;SDS011;2494;51.872;9.688;2022-08-19T11:34:32;1.43;;;1.10;;
4957;SDS011;2494;51.872;9.688;2022-08-19T11:36:58;2.40;;;1.10;;
4957;SDS011;2494;51.872;9.688;2022-08-19T11:39:25;2.27;;;1.30;;
4957;SDS011;2494;51.872;9.688;2022-08-19T11:41:51;1.23;;;1.13;;
4957;SDS011;2494;51.872;9.688;2022-08-19T11:44:18;1.40;;;1.30;;
4957;SDS011;2494;51.872;9.688;2022-08-19T11:46:44;1.50;;;1.40;;
4957;SDS011;2494;51.872;9.688;2022-08-19T11:49:11;1.40;;;1.30;;
4957;SDS011;2494;51.872;9.688;2022-08-19T11:51:39;1.40;;;1.30;;
4957;SDS011;2494;51.872;9.688;2022-08-19T11:54:07;2.20;;;1.40;;
4957;SDS011;2494;51.872;9.688;2022-08-19T11:56:33;1.37;;;1.27;;
4957;SDS011;2494;51.872;9.688;2022-08-19T11:58:59;1.80;;;1.03;;
4957;SDS011;2494;51.872;9.688;2022-08-19T12:01:26;1.13;;;1.03;;
4957;SDS011;2494;51.872;9.688;2022-08-19T12:03:53;1.40;;;1.30;;
4957;SDS011;2494;51.872;9.688;2022-08-19T12:06:21;1.80;;;1.10;;
4957;SDS011;2494;51.872;9.688;2022-08-19T12:08:50;1.40;;;1.30;;
4957;SDS011;2494;51.872;9.688;2022-08-19T12:11:16;1.70;;;1.20;;
4957;SDS011;2494;51.872;9.688;2022-08-19T12:13:42;1.30;;;1.20;;
4957;SDS011;2494;51.872;9.688;2022-08-19T12:16:11;1.30;;;1.20;;
4957;SDS011;2494;51.872;9.688;2022-08-19T12:18:38;1.13;;;1.03;;
4957;SDS011;2494;51.872;9.688;2022-08-19T12:21:06;1.20;;;1.10;;
4957;SDS011;2494;51.872;9.688;2022-08-19T12:23:33;1.27;;;1.10;;
4957;SDS011;2494;51.872;9.688;2022-08-19T12:26:00;2.17;;;1.30;;
4957;SDS011;2494;51.872;9.688;2022-08-19T12:28:27;1.57;;;1.30;;
4957;SDS011;2494;51.872;9.688;2022-08-19T12:30:53;1.40;;;1.30;;
4957;SDS011;2494;51.872;9.688;2022-08-19T12:33:19;1.60;;;1.50;;
4957;SDS011;2494;51.872;9.688;2022-08-19T12:35:49;1.90;;;1.10;;
4957;SDS011;2494;51.872;9.688;2022-08-19T12:38:15;1.50;;;1.40;;
4957;SDS011;2494;51.872;9.688;2022-08-19T12:40:42;3.97;;;1.43;;
4957;SDS011;2494;51.872;9.688;2022-08-19T12:43:12;1.27;;;1.10;;
4957;SDS011;2494;51.872;9.688;2022-08-19T12:45:39;1.30;;;1.20;;
4957;SDS011;2494;51.872;9.688;2022-08-19T12:48:05;3.57;;;1.50;;
4957;SDS011;2494;51.872;9.688;2022-08-19T12:50:31;1.50;;;1.40;;
4957;SDS011;2494;51.872;9.688;2022-08-19T12:52:57;1.57;;;1.47;;
4957;SDS011;2494;51.872;9.688;2022-08-19T12:55:24;4.10;;;1.50;;
4957;SDS011;2494;51.872;9.688;2022-08-19T12:57:53;1.60;;;1.50;;
4957;SDS011;2494;51.872;9.688;2022-08-19T13:00:21;1.70;;;1.60;;
4957;SDS011;2494;51.872;9.688;2022-08-19T13:02:48;2.33;;;1.53;;
4957;SDS011;2494;51.872;9.688;2022-08-19T13:05:21;6.07;;;1.63;;
4957;SDS011;2494;51.872;9.688;2022-08-19T13:07:48;2.13;;;1.30;;
4957;SDS011;2494;51.872;9.688;2022-08-19T13:10:16;7.30;;;4.47;;
4957;SDS011;2494;51.872;9.688;2022-08-19T13:12:43;2.43;;;1.50;;
4957;SDS011;2494;51.872;9.688;2022-08-19T13:15:10;4.40;;;1.60;;
4957;SDS011;2494;51.872;9.688;2022-08-19T13:17:38;5.03;;;1.70;;
4957;SDS011;2494;51.872;9.688;2022-08-19T13:20:05;1.60;;;1.50;;
4957;SDS011;2494;51.872;9.688;2022-08-19T13:22:32;3.03;;;1.60;;
4957;SDS011;2494;51.872;9.688;2022-08-19T13:25:00;5.73;;;1.77;;
4957;SDS011;2494;51.872;9.688;2022-08-19T13:27:27;1.40;;;1.30;;
4957;SDS011;2494;51.872;9.688;2022-08-19T13:29:53;1.70;;;1.60;;
4957;SDS011;2494;51.872;9.688;2022-08-19T13:32:38;1.90;;;1.53;;
4957;SDS011;2494;51.872;9.688;2022-08-19T13:35:22;1.60;;;1.50;;
4957;SDS011;2494;51.872;9.688;2022-08-19T13:37:49;1.60;;;1.50;;
4957;SDS011;2494;51.872;9.688;2022-08-19T13:40:16;1.67;;;1.57;;
4957;SDS011;2494;51.872;9.688;2022-08-19T13:42:44;2.70;;;1.70;;
4957;SDS011;2494;51.872;9.688;2022-08-19T13:45:12;1.43;;;1.33;;
4957;SDS011;2494;51.872;9.688;2022-08-19T13:47:40;2.17;;;1.70;;
4957;SDS011;2494;51.872;9.688;2022-08-19T13:50:08;1.77;;;1.67;;
4957;SDS011;2494;51.872;9.688;2022-08-19T13:52:34;1.90;;;1.80;;
4957;SDS011;2494;51.872;9.688;2022-08-19T13:55:00;2.43;;;1.90;;
4957;SDS011;2494;51.872;9.688;2022-08-19T13:57:27;2.90;;;1.50;;
4957;SDS011;2494;51.872;9.688;2022-08-19T13:59:53;1.40;;;1.30;;
4957;SDS011;2494;51.872;9.688;2022-08-19T14:02:19;3.40;;;1.60;;
4957;SDS011;2494;51.872;9.688;2022-08-19T14:04:47;1.60;;;1.50;;
4957;SDS011;2494;51.872;9.688;2022-08-19T14:07:13;1.50;;;1.40;;
4957;SDS011;2494;51.872;9.688;2022-08-19T14:09:40;3.27;;;1.40;;
4957;SDS011;2494;51.872;9.688;2022-08-19T14:12:06;1.63;;;1.30;;
4957;SDS011;2494;51.872;9.688;2022-08-19T14:14:35;1.40;;;1.30;;
4957;SDS011;2494;51.872;9.688;2022-08-19T14:17:02;1.30;;;1.20;;
4957;SDS011;2494;51.872;9.688;2022-08-19T14:19:31;1.50;;;1.40;;
4957;SDS011;2494;51.872;9.688;2022-08-19T14:21:59;1.30;;;1.20;;
4957;SDS011;2494;51.872;9.688;2022-08-19T14:24:25;1.50;;;1.40;;
4957;SDS011;2494;51.872;9.688;2022-08-19T14:26:51;3.83;;;1.50;;
4957;SDS011;2494;51.872;9.688;2022-08-19T14:29:18;1.90;;;1.70;;
4957;SDS011;2494;51.872;9.688;2022-08-19T14:31:44;4.00;;;1.50;;
4957;SDS011;2494;51.872;9.688;2022-08-19T14:34:10;1.70;;;1.60;;
4957;SDS011;2494;51.872;9.688;2022-08-19T14:36:37;3.53;;;1.53;;
4957;SDS011;2494;51.872;9.688;2022-08-19T14:39:05;1.50;;;1.40;;
4957;SDS011;2494;51.872;9.688;2022-08-19T14:41:32;1.77;;;1.60;;
4957;SDS011;2494;51.872;9.688;2022-08-19T14:43:58;1.90;;;1.30;;
4957;SDS011;2494;51.872;9.688;2022-08-19T14:46:26;1.50;;;1.40;;
4957;SDS011;2494;51.872;9.688;2022-08-19T14:48:53;1.70;;;1.30;;
4957;SDS011;2494;51.872;9.688;2022-08-19T14:51:20;1.53;;;1.43;;
4957;SDS011;2494;51.872;9.688;2022-08-19T14:53:46;2.20;;;1.60;;
4957;SDS011;2494;51.872;9.688;2022-08-19T14:56:16;1.60;;;1.50;;
4957;SDS011;2494;51.872;9.688;2022-08-19T14:58:43;2.17;;;1.30;;
4957;SDS011;2494;51.872;9.688;2022-08-19T15:01:09;2.43;;;1.47;;
4957;SDS011;2494;51.872;9.688;2022-08-19T15:03:36;1.43;;;1.33;;
4957;SDS011;2494;51.872;9.688;2022-08-19T15:06:03;2.10;;;1.60;;
4957;SDS011;2494;51.872;9.688;2022-08-19T15:08:31;1.87;;;1.60;;
4957;SDS011;2494;51.872;9.688;2022-08-19T15:10:58;1.50;;;1.40;;
4957;SDS011;2494;51.872;9.688;2022-08-19T15:13:26;1.67;;;1.57;;
4957;SDS011;2494;51.872;9.688;2022-08-19T15:15:53;1.70;;;1.60;;
4957;SDS011;2494;51.872;9.688;2022-08-19T15:18:19;1.57;;;1.40;;
4957;SDS011;2494;51.872;9.688;2022-08-19T15:20:46;1.33;;;1.23;;
4957;SDS011;2494;51.872;9.688;2022-08-19T15:23:13;2.80;;;1.40;;
4957;SDS011;2494;51.872;9.688;2022-08-19T15:25:39;1.80;;;1.70;;